Weather at Samsung Convention Hill Apartments Heliports

Public forecast

Using degrees Celsius for public forecast. Weather courtesy of forecast.io.

Closest aviation weather report (METAR) to Samsung Convention Hill Apartments Heliports

Closest report is Gimhae International Airport, 6.8 nm (12.7 km) WNW. Retrieved 2020/10/23 10:00 UTC (18 minutes ago):

RKPK 231000Z 30005KT CAVOK 12/03 Q1012

Closest aviation forecast (TAF) to Samsung Convention Hill Apartments Heliports

Closest forecast is Gimhae International Airport, 6.8 nm (12.7 km) WNW. Retrieved 2020/10/23 06:00 UTC (4 hours ago):

TAF RKPK 230500Z 2306/2412 32012KT 9999 SCT030 TN09/2321Z TX17/2406Z BECMG 2308/2309 33008KT BECMG 2400/2401 32012KT